createdAt,value
2022-11-16T00:00:20.122Z,27.73
2022-11-16T00:04:23.315Z,25.63
2022-11-16T00:08:27.242Z,26.00
2022-11-16T00:12:31.842Z,27.23
2022-11-16T00:16:35.511Z,27.95
2022-11-16T00:20:40.271Z,26.70
2022-11-16T00:24:43.462Z,30.20
2022-11-16T00:28:48.473Z,28.50
2022-11-16T00:32:51.527Z,28.33
2022-11-16T00:36:54.560Z,25.63
2022-11-16T00:40:58.131Z,28.52
2022-11-16T00:45:02.543Z,31.40
2022-11-16T00:49:06.571Z,26.25
2022-11-16T00:53:14.662Z,26.52
2022-11-16T00:57:17.750Z,29.27
2022-11-16T01:01:23.538Z,30.38
2022-11-16T01:05:27.511Z,30.13
2022-11-16T01:09:30.578Z,27.70
2022-11-16T01:13:33.763Z,30.70
2022-11-16T01:17:38.841Z,28.42
2022-11-16T01:21:41.893Z,27.08
2022-11-16T01:25:45.136Z,35.10
2022-11-16T01:29:48.585Z,33.35
2022-11-16T01:33:53.348Z,30.17
2022-11-16T01:38:00.415Z,29.45
2022-11-16T01:42:04.774Z,30.00
2022-11-16T01:46:07.900Z,26.95
2022-11-16T01:50:16.644Z,35.88
2022-11-16T01:54:21.677Z,30.88
2022-11-16T01:58:32.783Z,29.42
2022-11-16T02:02:50.860Z,32.20
2022-11-16T02:07:28.591Z,34.65
2022-11-16T02:12:03.885Z,31.77
2022-11-16T02:16:20.018Z,32.38
2022-11-16T02:20:43.680Z,32.88
2022-11-16T02:24:57.799Z,29.48
2022-11-16T02:29:21.443Z,30.35
2022-11-16T02:33:31.253Z,28.83
2022-11-16T02:37:38.861Z,28.77
2022-11-16T02:41:45.299Z,33.33
2022-11-16T02:45:54.606Z,26.48
2022-11-16T02:50:02.766Z,29.60
2022-11-16T02:54:12.657Z,28.13
2022-11-16T02:58:22.431Z,26.70
2022-11-16T03:02:33.865Z,23.60
2022-11-16T03:06:41.627Z,29.80
2022-11-16T03:11:06.150Z,27.60
2022-11-16T03:15:12.824Z,28.60
2022-11-16T03:19:23.061Z,27.88
2022-11-16T03:23:26.392Z,27.05
2022-11-16T03:27:36.164Z,26.35
2022-11-16T03:31:46.919Z,24.23
2022-11-16T03:36:00.767Z,23.23
2022-11-16T03:40:08.756Z,25.85
2022-11-16T03:44:13.823Z,24.63
2022-11-16T03:48:17.018Z,27.50
2022-11-16T03:52:22.066Z,26.17
2022-11-16T03:56:26.660Z,24.60
2022-11-16T04:00:29.782Z,27.58
2022-11-16T04:04:50.323Z,23.95
2022-11-16T04:09:24.527Z,30.70
2022-11-16T04:13:48.202Z,28.15
2022-11-16T04:18:08.660Z,29.02
2022-11-16T04:22:34.657Z,21.73
2022-11-16T04:26:57.181Z,24.08
2022-11-16T04:31:20.702Z,25.83
2022-11-16T04:35:55.970Z,26.98
2022-11-16T04:39:59.531Z,26.25
2022-11-16T04:44:04.332Z,28.08
2022-11-16T04:48:08.169Z,25.23
2022-11-16T04:52:13.014Z,24.80
2022-11-16T04:56:16.533Z,28.58
2022-11-16T05:00:21.463Z,25.77
2022-11-16T05:04:25.913Z,29.35
2022-11-16T05:08:29.639Z,25.80
2022-11-16T05:12:33.513Z,30.63
2022-11-16T05:16:40.956Z,26.85
2022-11-16T05:21:10.216Z,29.30
2022-11-16T05:25:14.600Z,30.85
2022-11-16T05:29:17.908Z,27.65
2022-11-16T05:33:22.588Z,28.42
2022-11-16T05:37:26.937Z,28.30
2022-11-16T05:41:30.295Z,27.67
2022-11-16T05:45:34.767Z,32.80
2022-11-16T05:49:39.647Z,26.88
2022-11-16T05:53:44.181Z,28.17
2022-11-16T05:57:51.066Z,30.48
2022-11-16T06:01:54.252Z,29.85
2022-11-16T06:06:00.042Z,29.58
2022-11-16T06:10:06.272Z,30.50
2022-11-16T06:14:09.845Z,32.53
2022-11-16T06:18:13.335Z,30.42
2022-11-16T06:22:17.966Z,32.17
2022-11-16T06:26:21.092Z,30.65
2022-11-16T06:30:24.368Z,34.03
2022-11-16T06:34:27.937Z,30.23
2022-11-16T06:38:33.543Z,27.25
2022-11-16T06:42:37.009Z,33.08
2022-11-16T06:46:40.109Z,27.98
2022-11-16T06:50:43.788Z,32.05
2022-11-16T06:54:48.251Z,33.28
2022-11-16T06:58:53.563Z,33.92
2022-11-16T07:02:57.794Z,29.13
2022-11-16T07:07:01.355Z,33.08
2022-11-16T07:11:08.129Z,30.25
2022-11-16T07:15:12.018Z,33.15
2022-11-16T07:19:17.860Z,27.08
2022-11-16T07:23:21.068Z,29.30
2022-11-16T07:27:25.670Z,27.55
2022-11-16T07:31:29.478Z,25.20
2022-11-16T07:35:50.990Z,30.08
2022-11-16T07:39:54.512Z,30.50
2022-11-16T07:44:01.137Z,30.65
2022-11-16T07:48:08.150Z,29.77
2022-11-16T07:52:29.980Z,27.80
2022-11-16T07:56:34.822Z,28.95
2022-11-16T08:00:39.294Z,28.48
2022-11-16T08:04:50.228Z,26.42
2022-11-16T08:08:58.592Z,28.70
2022-11-16T08:13:02.586Z,27.70
2022-11-16T08:17:08.400Z,29.40
2022-11-16T08:21:16.746Z,25.05
2022-11-16T08:25:20.705Z,27.50
2022-11-16T08:29:24.168Z,25.05
2022-11-16T08:33:30.192Z,26.17
2022-11-16T08:37:34.683Z,25.85
2022-11-16T08:41:38.997Z,29.60
2022-11-16T08:45:48.592Z,24.33
2022-11-16T08:49:53.451Z,25.45
2022-11-16T08:53:59.167Z,24.38
2022-11-16T08:58:04.441Z,24.92
2022-11-16T09:02:07.831Z,25.00
2022-11-16T09:10:29.599Z,21.17
2022-11-16T09:14:32.626Z,21.58
2022-11-16T09:18:36.715Z,22.27
2022-11-16T09:22:41.946Z,21.23
2022-11-16T09:26:44.968Z,19.13
2022-11-16T09:30:51.173Z,18.77
2022-11-16T09:34:54.406Z,21.05
2022-11-16T09:39:30.187Z,18.65
2022-11-16T09:43:44.163Z,20.55
2022-11-16T09:47:51.422Z,15.95
2022-11-16T09:51:59.589Z,18.73
2022-11-16T09:56:06.324Z,19.20
2022-11-16T10:00:19.593Z,15.45
2022-11-16T10:04:30.668Z,17.25
2022-11-16T10:08:46.069Z,14.27
2022-11-16T10:12:56.740Z,14.07
2022-11-16T10:17:08.122Z,13.40
2022-11-16T10:21:22.878Z,13.13
2022-11-16T10:25:32.202Z,14.65
2022-11-16T10:29:49.825Z,17.85
2022-11-16T10:33:57.919Z,15.20
2022-11-16T10:38:04.009Z,13.73
2022-11-16T10:42:12.757Z,15.35
2022-11-16T10:46:23.183Z,14.95
2022-11-16T10:50:34.165Z,15.60
2022-11-16T10:54:42.855Z,15.57
2022-11-16T10:58:55.363Z,13.02
2022-11-16T11:03:00.003Z,13.38
2022-11-16T11:07:22.908Z,13.85
2022-11-16T11:11:43.230Z,14.60
2022-11-16T11:15:48.042Z,15.00
2022-11-16T11:19:58.855Z,13.00
2022-11-16T11:24:37.374Z,12.10
2022-11-16T11:28:31.834Z,11.48
2022-11-16T11:32:41.483Z,14.30
2022-11-16T11:36:49.009Z,13.90
2022-11-16T11:40:58.764Z,10.88
2022-11-16T11:45:06.915Z,12.32
2022-11-16T11:49:17.589Z,8.40
2022-11-16T11:53:36.659Z,12.73
2022-11-16T11:57:45.122Z,9.13
2022-11-16T12:02:02.481Z,9.40
2022-11-16T12:06:11.132Z,13.70
2022-11-16T12:10:22.957Z,12.32
2022-11-16T12:14:36.371Z,10.40
2022-11-16T12:19:08.770Z,8.75
2022-11-16T12:23:25.326Z,10.88
2022-11-16T12:27:43.550Z,11.15
2022-11-16T12:32:14.855Z,9.63
2022-11-16T12:36:30.150Z,11.60
2022-11-16T12:40:48.897Z,8.65
2022-11-16T12:45:25.358Z,8.90
2022-11-16T12:50:02.665Z,9.48
2022-11-16T12:54:22.479Z,8.98
2022-11-16T12:58:46.941Z,8.90
2022-11-16T13:03:01.539Z,8.10
2022-11-16T13:07:12.009Z,7.97
2022-11-16T13:11:19.474Z,5.88
2022-11-16T13:15:27.098Z,6.85
2022-11-16T13:19:32.320Z,9.05
2022-11-16T13:23:48.706Z,8.27
2022-11-16T13:27:56.703Z,7.38
2022-11-16T13:32:06.829Z,10.05
2022-11-16T13:36:46.621Z,6.68
2022-11-16T13:40:49.657Z,9.15
2022-11-16T13:44:55.045Z,6.60
2022-11-16T13:48:58.147Z,7.90
2022-11-16T13:53:57.542Z,6.68
2022-11-16T13:57:33.247Z,7.68
2022-11-16T14:01:58.624Z,7.43
2022-11-16T14:06:01.606Z,6.00
2022-11-16T14:10:08.121Z,7.97
2022-11-16T14:14:12.883Z,8.85
2022-11-16T14:18:32.878Z,6.00
2022-11-16T14:22:54.046Z,7.18
2022-11-16T14:27:08.169Z,7.15
2022-11-16T14:31:25.097Z,6.95
2022-11-16T14:35:33.904Z,7.10
2022-11-16T14:39:38.812Z,6.05
2022-11-16T14:43:49.688Z,6.03
2022-11-16T14:47:59.477Z,6.03
2022-11-16T14:52:04.561Z,8.43
2022-11-16T14:56:10.637Z,6.70
2022-11-16T15:00:22.157Z,7.00
2022-11-16T15:04:27.118Z,6.82
2022-11-16T15:08:34.547Z,7.93
2022-11-16T15:12:43.155Z,5.82
2022-11-16T15:16:52.679Z,8.13
2022-11-16T15:20:55.718Z,6.80
2022-11-16T15:25:00.847Z,7.10
2022-11-16T15:29:03.859Z,8.77
2022-11-16T15:33:16.381Z,7.65
2022-11-16T15:37:28.232Z,6.72
2022-11-16T15:41:31.641Z,7.10
2022-11-16T15:45:35.479Z,6.68
2022-11-16T15:49:42.481Z,7.63
2022-11-16T15:53:47.313Z,7.03
2022-11-16T15:58:01.961Z,6.82
2022-11-16T16:02:05.720Z,7.15
2022-11-16T16:06:15.594Z,9.15
2022-11-16T16:10:25.777Z,9.07
2022-11-16T16:14:30.571Z,9.00
2022-11-16T16:18:41.582Z,8.68
2022-11-16T16:22:51.374Z,6.15
2022-11-16T16:26:54.649Z,9.50
2022-11-16T16:30:58.444Z,9.63
2022-11-16T16:35:02.797Z,9.10
2022-11-16T16:39:08.522Z,7.32
2022-11-16T16:43:11.535Z,9.20
2022-11-16T16:47:15.468Z,7.82
2022-11-16T16:51:18.879Z,7.80
2022-11-16T16:55:23.314Z,9.13
2022-11-16T16:59:26.464Z,8.50
2022-11-16T17:03:31.565Z,8.32
2022-11-16T17:07:34.810Z,8.77
2022-11-16T17:11:39.397Z,8.93
2022-11-16T17:15:42.374Z,11.27
2022-11-16T17:19:45.410Z,9.23
2022-11-16T17:23:48.878Z,9.27
2022-11-16T17:27:53.265Z,7.53
2022-11-16T17:31:56.270Z,8.05
2022-11-16T17:36:01.489Z,8.00
2022-11-16T17:40:04.832Z,8.65
2022-11-16T17:44:09.764Z,8.63
2022-11-16T17:48:12.984Z,9.80
2022-11-16T17:52:15.983Z,8.32
2022-11-16T17:56:21.147Z,8.55
2022-11-16T18:00:25.544Z,10.85
2022-11-16T18:04:28.545Z,8.23
2022-11-16T18:08:32.388Z,9.57
2022-11-16T18:12:35.703Z,9.30
2022-11-16T18:16:41.116Z,10.05
2022-11-16T18:20:44.613Z,6.82
2022-11-16T18:24:50.725Z,7.93
2022-11-16T18:28:54.285Z,7.70
2022-11-16T18:32:58.642Z,9.90
2022-11-16T18:37:01.723Z,8.73
2022-11-16T18:41:07.598Z,9.40
2022-11-16T18:45:11.415Z,7.57
2022-11-16T18:49:16.572Z,9.30
2022-11-16T18:53:19.559Z,8.68
2022-11-16T18:57:22.593Z,7.97
2022-11-16T19:01:27.707Z,8.82
2022-11-16T19:05:32.210Z,7.32
2022-11-16T19:09:35.605Z,6.82
2022-11-16T19:13:39.406Z,5.80
2022-11-16T19:17:59.627Z,8.18
2022-11-16T19:22:07.150Z,6.88
2022-11-16T19:26:12.846Z,8.95
2022-11-16T19:30:16.249Z,7.63
2022-11-16T19:34:19.619Z,8.43
2022-11-16T19:38:24.093Z,7.60
2022-11-16T19:42:27.721Z,8.07
2022-11-16T19:46:33.147Z,10.10
2022-11-16T19:50:36.945Z,6.82
2022-11-16T19:54:41.957Z,7.35
2022-11-16T19:58:45.554Z,7.38
2022-11-16T20:02:48.962Z,6.32
2022-11-16T20:06:52.339Z,7.80
2022-11-16T20:10:57.108Z,6.75
2022-11-16T20:15:01.582Z,5.65
2022-11-16T20:19:05.919Z,6.35
2022-11-16T20:23:09.166Z,7.45
2022-11-16T20:27:14.019Z,5.95
2022-11-16T20:31:18.974Z,6.22
2022-11-16T20:35:22.226Z,6.13
2022-11-16T20:39:25.741Z,5.13
2022-11-16T20:43:30.461Z,5.63
2022-11-16T20:47:34.262Z,7.57
2022-11-16T20:51:37.438Z,5.70
2022-11-16T20:55:40.953Z,6.32
2022-11-16T20:59:45.874Z,5.45
2022-11-16T21:03:49.085Z,4.63
2022-11-16T21:07:53.296Z,8.20
2022-11-16T21:12:14.066Z,4.53
2022-11-16T21:16:18.448Z,6.53
2022-11-16T21:20:27.592Z,5.43
2022-11-16T21:24:32.230Z,5.35
2022-11-16T21:28:35.973Z,6.40
2022-11-16T21:32:40.356Z,5.20
2022-11-16T21:36:43.421Z,4.57
2022-11-16T21:40:46.675Z,4.85
2022-11-16T21:44:49.794Z,5.70
2022-11-16T21:48:56.638Z,4.97
2022-11-16T21:53:00.646Z,4.50
2022-11-16T21:57:03.686Z,5.10
2022-11-16T22:01:07.370Z,4.43
2022-11-16T22:05:29.432Z,5.00
2022-11-16T22:09:32.530Z,6.22
2022-11-16T22:13:36.214Z,5.70
2022-11-16T22:17:43.621Z,4.53
2022-11-16T22:21:48.083Z,4.63
2022-11-16T22:25:51.510Z,4.85
2022-11-16T22:29:54.628Z,4.18
2022-11-16T22:33:57.662Z,5.30
2022-11-16T22:38:03.460Z,4.25
2022-11-16T22:42:06.750Z,5.13
2022-11-16T22:46:11.915Z,4.90
2022-11-16T22:50:15.090Z,4.47
2022-11-16T22:54:22.196Z,5.57
2022-11-16T22:58:27.678Z,5.70
2022-11-16T23:02:30.915Z,4.18
2022-11-16T23:06:34.042Z,6.13
2022-11-16T23:10:58.414Z,4.65
2022-11-16T23:15:18.653Z,6.78
2022-11-16T23:19:40.540Z,5.18
2022-11-16T23:24:00.745Z,4.38
2022-11-16T23:28:07.880Z,4.53
2022-11-16T23:32:11.245Z,5.18
2022-11-16T23:36:14.651Z,5.35
2022-11-16T23:40:18.359Z,6.97
2022-11-16T23:44:22.775Z,4.90
2022-11-16T23:48:25.868Z,4.18
2022-11-16T23:52:28.879Z,4.63
2022-11-16T23:56:32.161Z,3.38
